Time;durP1;ratioP1;P1;durP2;ratioP2;P2;SDS_P1;SDS_P2;PMS_P1;PMS_P2;Temp;Humidity;BMP_temperature;BMP_pressure;BME280_temperature;BME280_humidity;BME280_pressure;Samples;Min_cycle;Max_cycle;Signal;HPM_P1;HPM_P2
2022/03/21 00:01:56;;;;;;;17.90;12.13;;;;;;;5.42;44.96;103268.97;5033380;28;20164;-46
2022/03/21 00:04:23;;;;;;;15.15;11.52;;;;;;;5.39;45.16;103267.16;5040974;28;20183;-45
2022/03/21 00:06:48;;;;;;;16.85;11.95;;;;;;;5.38;44.77;103281.31;5053240;28;20284;-46
2022/03/21 00:09:14;;;;;;;16.27;11.57;;;;;;;5.32;45.01;103262.56;5053079;28;20292;-45
2022/03/21 00:11:40;;;;;;;18.38;12.52;;;;;;;5.22;45.25;103269.41;5053083;28;20246;-44
2022/03/21 00:14:05;;;;;;;14.68;11.75;;;;;;;5.25;45.44;103264.19;5052958;28;20179;-46
2022/03/21 00:16:31;;;;;;;15.43;12.25;;;;;;;5.22;45.51;103253.47;5068385;28;20168;-45
2022/03/21 00:18:56;;;;;;;13.68;11.15;;;;;;;5.31;45.48;103266.06;5052994;28;20180;-46
2022/03/21 00:21:22;;;;;;;15.82;10.98;;;;;;;5.30;45.34;103265.19;5052976;28;20164;-47
2022/03/21 00:23:48;;;;;;;17.25;11.55;;;;;;;5.28;45.23;103272.22;5052344;28;20194;-47
2022/03/21 00:26:15;;;;;;;16.30;11.30;;;;;;;5.26;45.47;103267.75;5051611;28;20179;-47
2022/03/21 00:28:41;;;;;;;14.13;11.30;;;;;;;5.15;45.85;103278.13;5068338;28;20171;-47
2022/03/21 00:31:06;;;;;;;15.27;11.15;;;;;;;5.29;45.16;103274.03;5052714;28;20731;-46
2022/03/21 00:33:32;;;;;;;14.30;11.10;;;;;;;5.27;45.05;103262.47;5052396;28;20187;-45
2022/03/21 00:36:00;;;;;;;16.05;11.50;;;;;;;5.31;44.76;103259.03;5053005;28;20662;-46
2022/03/21 00:38:26;;;;;;;17.73;12.23;;;;;;;5.33;44.85;103259.91;5052566;28;20175;-45
2022/03/21 00:40:52;;;;;;;17.40;11.30;;;;;;;5.21;45.07;103248.16;5052121;28;20167;-44
2022/03/21 00:43:23;;;;;;;14.65;11.18;;;;;;;5.16;45.65;103251.59;5052746;28;20332;-47
2022/03/21 00:45:53;;;;;;;15.07;10.98;;;;;;;5.17;45.38;103255.13;5053488;28;20250;-46
2022/03/21 00:48:19;;;;;;;14.40;11.35;;;;;;;5.15;45.51;103254.19;5053352;28;20186;-46
2022/03/21 00:50:45;;;;;;;17.33;12.30;;;;;;;5.18;45.30;103251.59;5053043;28;20682;-49
2022/03/21 00:53:11;;;;;;;16.20;11.80;;;;;;;5.24;45.40;103258.84;5052577;28;20202;-46
2022/03/21 00:55:36;;;;;;;15.80;11.23;;;;;;;5.15;45.33;103267.50;5053026;28;20171;-46
2022/03/21 00:58:02;;;;;;;14.43;11.25;;;;;;;5.14;45.65;103263.03;5053028;28;20627;-47
2022/03/21 01:00:30;;;;;;;13.50;10.73;;;;;;;5.15;45.48;103271.03;5053132;28;20300;-46
2022/03/21 01:02:57;;;;;;;16.13;12.13;;;;;;;5.13;45.40;103266.56;5051449;28;20199;-45
2022/03/21 01:05:23;;;;;;;16.90;12.15;;;;;;;5.11;45.60;103260.28;5051352;28;20546;-45
2022/03/21 01:07:50;;;;;;;14.30;11.45;;;;;;;5.08;45.76;103260.25;5052781;28;20175;-48
2022/03/21 01:10:18;;;;;;;14.98;11.05;;;;;;;5.16;45.44;103256.00;5052968;28;20171;-47
2022/03/21 01:12:44;;;;;;;15.45;11.40;;;;;;;5.10;45.66;103251.44;5052835;28;20210;-50
2022/03/21 01:15:14;;;;;;;16.92;11.88;;;;;;;5.03;46.01;103253.91;5052365;28;20540;-50
2022/03/21 01:17:39;;;;;;;16.75;11.43;;;;;;;4.89;46.76;103249.16;5052805;28;20249;-44
2022/03/21 01:20:05;;;;;;;14.90;11.15;;;;;;;4.98;46.09;103250.25;5052688;28;20228;-46
2022/03/21 01:22:31;;;;;;;15.43;11.32;;;;;;;5.07;45.63;103255.78;5053028;28;20159;-46
2022/03/21 01:24:56;;;;;;;19.52;11.68;;;;;;;5.02;45.90;103241.50;5052597;28;20223;-45
2022/03/21 01:27:22;;;;;;;16.88;11.75;;;;;;;5.00;45.92;103248.53;5051067;28;20219;-47
2022/03/21 01:29:48;;;;;;;15.23;11.43;;;;;;;4.98;46.04;103256.44;5034480;28;20175;-46
2022/03/21 01:32:13;;;;;;;15.85;11.40;;;;;;;4.94;46.30;103260.81;5052357;28;20198;-47
2022/03/21 01:34:39;;;;;;;17.30;11.70;;;;;;;5.00;45.87;103254.72;5052297;28;20198;-48
2022/03/21 01:37:04;;;;;;;16.23;11.93;;;;;;;4.94;46.06;103252.84;5052277;28;20249;-47
2022/03/21 01:39:30;;;;;;;14.65;10.70;;;;;;;4.93;46.48;103258.09;5052773;28;20236;-46
2022/03/21 01:41:55;;;;;;;15.48;11.38;;;;;;;4.94;45.92;103260.81;5052076;28;20168;-48
2022/03/21 01:44:21;;;;;;;15.23;11.77;;;;;;;4.92;46.41;103257.22;5051889;28;20587;-46
2022/03/21 01:46:46;;;;;;;18.75;11.05;;;;;;;4.85;46.43;103254.34;5052333;28;20630;-46
2022/03/21 01:49:13;;;;;;;17.58;11.10;;;;;;;4.79;47.17;103265.75;5052400;28;20167;-46
2022/03/21 01:51:41;;;;;;;15.07;11.73;;;;;;;4.77;47.08;103262.16;5051854;28;20211;-45
2022/03/21 01:56:51;;;;;;;15.95;11.05;;;;;;;4.66;47.28;103268.97;5052095;28;20172;-46
2022/03/21 01:59:21;;;;;;;16.02;11.32;;;;;;;4.59;47.74;103269.63;5051608;28;20179;-50
2022/03/21 02:01:48;;;;;;;14.15;11.57;;;;;;;4.58;47.78;103260.78;5051768;28;20538;-47
2022/03/21 02:04:15;;;;;;;16.33;11.55;;;;;;;4.61;47.73;103274.13;5051502;28;20194;-46
2022/03/21 02:06:45;;;;;;;17.15;11.57;;;;;;;4.60;47.76;103258.19;5052440;28;20164;-46
2022/03/21 02:09:10;;;;;;;14.80;11.45;;;;;;;4.59;47.91;103248.41;5051984;28;20682;-46
2022/03/21 02:11:37;;;;;;;17.38;11.18;;;;;;;4.51;48.22;103253.53;5051646;28;20294;-48
2022/03/21 02:14:04;;;;;;;19.13;12.20;;;;;;;4.45;48.65;103261.31;5051372;28;20187;-47
2022/03/21 02:16:32;;;;;;;17.05;11.48;;;;;;;4.47;48.38;103247.22;5051504;28;20549;-49
2022/03/21 02:19:06;;;;;;;17.65;11.98;;;;;;;4.51;48.31;103254.41;5051908;28;20172;-46
2022/03/21 02:21:43;;;;;;;15.35;11.32;;;;;;;4.46;48.25;103253.41;5047786;28;20257;-46
2022/03/21 02:24:25;;;;;;;14.63;11.23;;;;;;;4.49;48.08;103253.47;5051128;28;20211;-48
2022/03/21 02:26:52;;;;;;;16.13;11.02;;;;;;;4.45;48.21;103248.03;5051236;28;20171;-47
2022/03/21 02:29:20;;;;;;;17.58;10.93;;;;;;;4.52;48.12;103248.22;5049489;28;20555;-43
2022/03/21 02:31:47;;;;;;;13.90;11.18;;;;;;;4.47;47.92;103228.66;5050587;28;20611;-46
2022/03/21 02:34:13;;;;;;;14.48;10.90;;;;;;;4.53;47.99;103231.47;5050049;28;20569;-48
2022/03/21 02:36:40;;;;;;;15.32;11.35;;;;;;;4.57;47.66;103223.56;5050842;28;20185;-43
2022/03/21 02:39:05;;;;;;;13.60;10.40;;;;;;;4.50;47.86;103219.84;5050594;28;20183;-45
2022/03/21 02:41:32;;;;;;;15.27;11.10;;;;;;;4.46;48.10;103217.97;5050834;28;20232;-46
2022/03/21 02:43:59;;;;;;;16.00;11.20;;;;;;;4.47;47.94;103220.69;5049582;28;20203;-49
2022/03/21 02:46:25;;;;;;;15.77;11.70;;;;;;;4.42;48.00;103227.63;5050888;28;20178;-45
2022/03/21 02:48:53;;;;;;;14.70;11.60;;;;;;;4.40;48.01;103233.78;5051106;28;20235;-46
2022/03/21 02:51:21;;;;;;;14.85;11.35;;;;;;;4.41;47.98;103215.22;5050326;28;20187;-45
2022/03/21 02:53:49;;;;;;;16.20;11.27;;;;;;;4.36;48.06;103231.88;5051082;28;20179;-47
2022/03/21 02:56:14;;;;;;;16.38;11.45;;;;;;;4.34;48.17;103224.78;5048672;28;20175;-47
2022/03/21 02:58:40;;;;;;;14.85;11.25;;;;;;;4.35;47.99;103238.94;5050651;28;20202;-46
2022/03/21 03:01:06;;;;;;;13.60;10.38;;;;;;;4.33;47.94;103244.22;5050802;28;20253;-47
2022/03/21 03:03:31;;;;;;;14.93;10.95;;;;;;;4.24;48.53;103248.38;5047542;28;20195;-49
2022/03/21 03:05:57;;;;;;;14.60;10.98;;;;;;;4.17;48.60;103244.66;5030983;28;20175;-45
2022/03/21 03:08:22;;;;;;;17.23;11.98;;;;;;;4.16;48.66;103234.00;5030853;28;20251;-48
2022/03/21 03:10:47;;;;;;;15.35;11.05;;;;;;;4.19;48.56;103234.09;5030625;28;20646;-46
2022/03/21 03:13:13;;;;;;;13.13;10.88;;;;;;;4.17;48.70;103242.00;5030176;28;20190;-48
2022/03/21 03:15:38;;;;;;;16.20;10.98;;;;;;;4.15;48.68;103234.84;5030828;28;20258;-49
2022/03/21 03:18:04;;;;;;;14.25;11.32;;;;;;;4.15;48.59;103238.41;5030820;28;20168;-46
2022/03/21 03:20:29;;;;;;;17.10;11.20;;;;;;;4.21;48.29;103235.91;5030462;28;20206;-46
2022/03/21 03:22:56;;;;;;;14.32;10.52;;;;;;;4.15;48.67;103243.72;5030017;28;20239;-46
2022/03/21 03:25:21;;;;;;;14.18;10.77;;;;;;;4.06;48.99;103239.03;5029482;28;20208;-48
2022/03/21 03:27:47;;;;;;;14.80;10.75;;;;;;;4.17;48.40;103230.50;5028908;28;20225;-43
2022/03/21 03:30:13;;;;;;;15.05;11.38;;;;;;;4.25;48.13;103234.25;5029712;28;20590;-43
2022/03/21 03:32:40;;;;;;;15.18;10.77;;;;;;;4.14;48.67;103233.97;5029073;28;20219;-42
2022/03/21 03:35:06;;;;;;;13.52;10.38;;;;;;;4.20;48.16;103220.88;5028512;28;20207;-42
2022/03/21 03:37:31;;;;;;;15.73;10.93;;;;;;;4.27;47.84;103219.28;5028284;28;20178;-43
2022/03/21 03:39:57;;;;;;;15.07;10.88;;;;;;;4.29;47.56;103220.22;5028338;28;20175;-44
2022/03/21 03:42:22;;;;;;;14.50;11.00;;;;;;;4.31;47.66;103227.34;5029475;28;20306;-45
2022/03/21 03:44:48;;;;;;;14.85;10.23;;;;;;;4.23;47.73;103220.94;5029463;28;20187;-43
2022/03/21 03:47:13;;;;;;;16.10;10.68;;;;;;;4.24;47.77;103212.13;5029608;28;20171;-43
2022/03/21 03:49:38;;;;;;;14.57;10.55;;;;;;;4.27;47.68;103232.53;5030093;28;20195;-44
2022/03/21 03:52:04;;;;;;;12.75;10.27;;;;;;;4.17;48.00;103234.03;5029293;28;20211;-45
2022/03/21 03:54:29;;;;;;;16.05;10.40;;;;;;;4.15;48.24;103222.47;5029590;28;20223;-46
2022/03/21 03:56:55;;;;;;;15.10;10.57;;;;;;;4.12;47.96;103225.06;5029657;28;20184;-44
2022/03/21 03:59:20;;;;;;;15.95;10.70;;;;;;;4.14;48.16;103231.31;5028193;28;20277;-45
2022/03/21 04:01:46;;;;;;;14.07;10.75;;;;;;;4.12;48.08;103230.38;5029716;28;20156;-45
2022/03/21 04:04:11;;;;;;;15.60;10.68;;;;;;;4.13;48.10;103222.47;5036360;28;20196;-44
2022/03/21 04:06:37;;;;;;;15.52;10.20;;;;;;;4.10;48.40;103225.00;5049170;28;20174;-47
2022/03/21 04:09:03;;;;;;;17.52;10.43;;;;;;;4.01;48.82;103231.84;5031208;28;20189;-48
2022/03/21 04:11:28;;;;;;;15.05;10.00;;;;;;;4.00;48.64;103228.28;5049346;28;20207;-44
2022/03/21 04:13:54;;;;;;;14.25;10.77;;;;;;;3.95;48.86;103232.56;5049023;28;20634;-46
2022/03/21 04:16:19;;;;;;;13.60;10.13;;;;;;;3.88;48.99;103236.78;5031225;28;20198;-45
2022/03/21 04:18:45;;;;;;;14.55;10.40;;;;;;;3.89;48.96;103237.69;5048278;28;20167;-45
2022/03/21 04:21:10;;;;;;;15.10;10.05;;;;;;;3.91;48.87;103233.31;5040331;28;20174;-45
2022/03/21 04:23:35;;;;;;;13.65;10.13;;;;;;;3.86;49.01;103234.94;5046621;28;20667;-44
2022/03/21 04:26:02;;;;;;;17.10;10.05;;;;;;;3.78;49.41;103247.09;5049139;28;20176;-44
2022/03/21 04:28:28;;;;;;;13.07;10.43;;;;;;;3.76;49.15;103243.50;5048928;28;20218;-44
2022/03/21 04:30:53;;;;;;;16.77;10.38;;;;;;;3.76;49.35;103243.50;5047700;28;20674;-45
2022/03/21 04:33:19;;;;;;;13.13;10.10;;;;;;;3.73;49.51;103246.94;5047292;28;20187;-45
2022/03/21 04:35:45;;;;;;;13.65;10.45;;;;;;;3.74;49.55;103255.81;5049329;28;20172;-43
2022/03/21 04:38:15;;;;;;;15.35;10.48;;;;;;;3.73;49.30;103260.22;5052243;28;20548;-44
2022/03/21 04:40:47;;;;;;;14.65;10.55;;;;;;;3.70;49.37;103238.94;5051622;28;20172;-44
2022/03/21 04:43:14;;;;;;;11.88;9.85;;;;;;;3.69;49.58;103234.47;5052630;28;20206;-45
2022/03/21 04:45:42;;;;;;;15.98;10.82;;;;;;;3.63;49.96;103243.16;5052714;28;20224;-44
2022/03/21 04:48:07;;;;;;;15.63;10.60;;;;;;;3.68;49.46;103235.34;5052315;28;20228;-45
2022/03/21 04:50:33;;;;;;;13.00;10.23;;;;;;;3.65;49.55;103230.84;5052793;28;20271;-46
2022/03/21 04:52:59;;;;;;;14.55;10.60;;;;;;;3.66;49.48;103229.09;5052277;28;20183;-44
2022/03/21 04:55:26;;;;;;;15.88;9.95;;;;;;;3.61;49.64;103223.66;5052203;28;20187;-45
2022/03/21 04:57:51;;;;;;;16.10;10.25;;;;;;;3.56;50.09;103224.34;5052666;28;20168;-46
2022/03/21 05:00:17;;;;;;;14.82;10.68;;;;;;;3.47;50.48;103233.81;5051920;28;20344;-45
2022/03/21 05:02:42;;;;;;;13.73;10.35;;;;;;;3.50;50.14;103241.00;5052413;28;20162;-43
2022/03/21 05:05:11;;;;;;;15.50;11.13;;;;;;;3.54;50.05;103242.84;5035400;28;20199;-46
2022/03/21 05:07:45;;;;;;;12.50;9.82;;;;;;;3.52;49.83;103241.94;5032525;28;20176;-45
2022/03/21 05:10:11;;;;;;;13.95;10.88;;;;;;;3.44;50.24;103252.28;5032678;28;20494;-46
2022/03/21 05:12:37;;;;;;;15.05;10.07;;;;;;;3.43;50.31;103257.53;5031326;28;20207;-44
2022/03/21 05:15:07;;;;;;;14.68;10.52;;;;;;;3.45;50.32;103255.84;5031734;28;20199;-44
2022/03/21 05:17:34;;;;;;;15.63;10.88;;;;;;;3.48;50.49;103250.66;5031843;28;20824;-45
2022/03/21 05:20:00;;;;;;;14.30;10.75;;;;;;;3.39;50.58;103255.66;5030185;28;20179;-44
2022/03/21 05:22:26;;;;;;;13.65;10.57;;;;;;;3.45;50.42;103263.78;5031038;28;20176;-44
2022/03/21 05:35:56;;;;;;;14.25;10.00;;;;;;;3.29;51.00;103273.91;5031327;28;20160;-44
2022/03/21 05:38:26;;;;;;;14.68;10.48;;;;;;;3.27;51.20;103285.31;5031573;28;20196;-44
2022/03/21 05:40:56;;;;;;;13.35;10.50;;;;;;;3.37;51.15;103274.16;5031700;28;20171;-44
2022/03/21 05:43:22;;;;;;;13.60;10.55;;;;;;;3.24;51.50;103280.84;5031061;28;20184;-45
2022/03/21 05:45:49;;;;;;;16.92;10.52;;;;;;;3.22;51.53;103285.19;5030168;28;20180;-43
2022/03/21 05:51:00;;;;;;;13.60;9.80;;;;;;;3.10;52.24;103295.38;5031442;28;20283;-44
2022/03/21 05:53:26;;;;;;;14.55;10.75;;;;;;;3.14;51.88;103299.03;5031046;28;20286;-44
2022/03/21 05:55:51;;;;;;;13.80;10.10;;;;;;;3.19;51.91;103303.63;5031187;28;20187;-44
2022/03/21 05:58:17;;;;;;;15.63;10.50;;;;;;;3.13;52.42;103303.44;5031362;28;20182;-44
2022/03/21 06:00:42;;;;;;;14.65;11.02;;;;;;;3.12;51.82;103301.63;5031108;28;20195;-45
2022/03/21 06:03:09;;;;;;;17.52;10.75;;;;;;;3.13;52.02;103298.13;5030635;28;20321;-46
2022/03/21 06:05:37;;;;;;;15.20;11.02;;;;;;;3.19;52.00;103305.38;5049853;28;20168;-46
2022/03/21 06:08:03;;;;;;;17.08;11.15;;;;;;;3.16;51.88;103313.22;5050995;28;20486;-45
2022/03/21 06:10:29;;;;;;;15.57;11.38;;;;;;;3.20;52.05;103301.88;5051164;28;20175;-47
2022/03/21 06:12:55;;;;;;;15.27;9.90;;;;;;;3.25;52.10;103303.81;5050762;28;20171;-47
2022/03/21 06:15:20;;;;;;;16.05;11.55;;;;;;;3.34;51.60;103302.31;5050873;28;20195;-45
2022/03/21 06:17:46;;;;;;;16.83;10.85;;;;;;;3.43;51.73;103298.22;5050985;28;20316;-45
2022/03/21 06:20:16;;;;;;;14.05;11.05;;;;;;;3.56;50.88;103286.22;5050969;28;20214;-45
2022/03/21 06:22:42;;;;;;;14.00;10.48;;;;;;;3.55;50.87;103287.06;5050945;28;20163;-45
2022/03/21 06:25:09;;;;;;;13.57;10.52;;;;;;;3.55;51.14;103299.44;5049569;28;20274;-46
2022/03/21 06:27:39;;;;;;;15.23;10.70;;;;;;;3.64;50.92;103297.06;5050974;28;20175;-46
2022/03/21 06:30:09;;;;;;;14.27;10.18;;;;;;;3.79;50.69;103302.81;5050521;28;20167;-44
2022/03/21 06:32:35;;;;;;;14.57;10.25;;;;;;;3.80;50.41;103298.41;5050088;28;20199;-46
2022/03/21 06:35:03;;;;;;;14.52;10.25;;;;;;;3.77;50.48;103299.22;5050779;28;20244;-47
2022/03/21 06:37:29;;;;;;;14.55;10.95;;;;;;;3.92;50.67;103299.66;5050672;28;20265;-46
2022/03/21 06:39:55;;;;;;;15.00;10.10;;;;;;;3.83;50.64;103286.16;5051192;28;20160;-48
2022/03/21 06:42:21;;;;;;;15.32;10.93;;;;;;;3.68;50.72;103283.94;5049844;28;20630;-48
2022/03/21 06:44:52;;;;;;;13.02;10.07;;;;;;;3.69;50.55;103284.84;5049129;28;20206;-47
2022/03/21 06:47:19;;;;;;;14.00;10.85;;;;;;;3.62;50.75;103294.34;5050977;28;20176;-47
2022/03/21 06:49:45;;;;;;;14.38;11.38;;;;;;;3.64;50.54;103291.75;5050789;28;20631;-47
2022/03/21 06:52:11;;;;;;;13.27;10.70;;;;;;;3.66;50.46;103298.00;5050892;28;20211;-47
2022/03/21 06:54:37;;;;;;;14.95;10.63;;;;;;;3.66;50.78;103295.34;5049223;28;20199;-49
2022/03/21 06:57:04;;;;;;;14.45;9.90;;;;;;;3.76;50.31;103313.34;5049225;28;20184;-49
2022/03/21 06:59:34;;;;;;;13.40;10.15;;;;;;;3.81;50.12;103311.72;5050163;28;20241;-49
2022/03/21 07:02:00;;;;;;;12.65;9.93;;;;;;;3.99;50.09;103321.97;5031563;28;20542;-49
2022/03/21 07:04:26;;;;;;;14.80;10.43;;;;;;;4.10;49.31;103333.78;5040889;28;20231;-46
2022/03/21 07:06:53;;;;;;;15.52;10.77;;;;;;;4.40;49.13;103329.31;5030867;28;20592;-48
2022/03/21 07:09:18;;;;;;;15.77;11.13;;;;;;;4.50;48.72;103334.94;5030920;28;20173;-48
2022/03/21 07:11:44;;;;;;;15.95;10.73;;;;;;;4.69;48.59;103333.66;5037106;28;20218;-48
2022/03/21 07:14:10;;;;;;;14.32;11.00;;;;;;;4.66;47.80;103335.34;5048803;28;20213;-46
2022/03/21 07:16:35;;;;;;;13.30;9.82;;;;;;;4.80;47.35;103335.69;5050145;28;20187;-47
2022/03/21 07:19:01;;;;;;;14.88;10.43;;;;;;;5.02;48.04;103338.03;5052624;28;20175;-48
2022/03/21 07:21:27;;;;;;;15.02;10.98;;;;;;;4.99;47.91;103345.03;5065413;28;20168;-47
2022/03/21 07:23:52;;;;;;;15.05;10.52;;;;;;;4.97;47.44;103350.31;5047543;28;20208;-46
2022/03/21 07:26:18;;;;;;;12.98;10.13;;;;;;;5.10;47.50;103349.75;5049193;28;20203;-49
2022/03/21 07:28:43;;;;;;;16.77;10.85;;;;;;;5.25;47.07;103354.56;5050011;28;20627;-48
2022/03/21 07:31:09;;;;;;;14.45;10.73;;;;;;;5.20;46.82;103363.25;5049226;28;20188;-46
2022/03/21 07:33:38;;;;;;;15.70;10.45;;;;;;;5.58;47.31;103356.22;5049320;28;20211;-48
2022/03/21 07:36:04;;;;;;;16.92;10.45;;;;;;;5.62;46.41;103346.53;5050320;28;20163;-48
2022/03/21 07:38:29;;;;;;;15.30;11.52;;;;;;;5.60;46.05;103349.19;5048306;28;20534;-47
2022/03/21 07:40:56;;;;;;;13.20;11.48;;;;;;;5.95;45.95;103343.78;5048777;28;20899;-48
2022/03/21 07:43:21;;;;;;;18.17;11.25;;;;;;;6.09;45.09;103350.28;5049084;28;20250;-48
2022/03/21 07:48:31;;;;;;;14.88;10.82;;;;;;;6.56;44.68;103361.00;5049488;28;20277;-46
2022/03/21 07:50:57;;;;;;;15.75;11.20;;;;;;;6.47;44.00;103358.16;5049201;28;20206;-47
2022/03/21 07:53:23;;;;;;;13.27;10.13;;;;;;;6.92;44.02;103353.66;5046600;28;20221;-50
2022/03/21 07:55:49;;;;;;;15.40;10.80;;;;;;;6.90;43.21;103352.72;5047632;28;20262;-48
2022/03/21 07:58:14;;;;;;;16.65;10.70;;;;;;;6.49;43.92;103350.19;5049643;28;20582;-48
2022/03/21 08:00:41;;;;;;;12.00;10.13;;;;;;;6.56;44.08;103344.13;5048836;28;20183;-45
2022/03/21 08:03:09;;;;;;;15.95;11.25;;;;;;;6.73;43.57;103347.97;5048999;28;20160;-47
2022/03/21 08:05:35;;;;;;;12.85;11.20;;;;;;;6.84;43.85;103341.94;5030094;28;20171;-47
2022/03/21 08:08:00;;;;;;;12.25;10.52;;;;;;;7.30;43.20;103338.28;5029549;28;20517;-48
2022/03/21 08:10:25;;;;;;;13.63;10.80;;;;;;;7.15;43.24;103341.63;5029439;28;20219;-48
2022/03/21 08:12:51;;;;;;;13.43;10.57;;;;;;;7.13;42.95;103339.78;5031600;28;20219;-48
2022/03/21 08:15:17;;;;;;;15.25;10.95;;;;;;;6.95;43.19;103335.03;5033253;28;20245;-48
2022/03/21 08:17:52;;;;;;;13.98;9.98;;;;;;;6.82;43.02;103331.25;5033154;28;20164;-47
2022/03/21 08:20:22;;;;;;;17.25;10.52;;;;;;;7.06;42.67;103336.09;5034063;28;20644;-46
2022/03/21 08:22:48;;;;;;;13.25;10.70;;;;;;;7.42;43.13;103337.59;5031795;28;20193;-47
2022/03/21 08:25:17;;;;;;;17.77;11.52;;;;;;;7.59;42.38;103345.84;5033746;28;20192;-50
2022/03/21 08:27:43;;;;;;;13.52;10.60;;;;;;;7.53;42.51;103335.97;5032224;28;20430;-49
2022/03/21 08:30:11;;;;;;;14.65;11.43;;;;;;;7.08;43.08;103347.69;5033735;28;20179;-48
2022/03/21 08:32:37;;;;;;;15.15;10.57;;;;;;;7.70;42.78;103340.66;5033247;28;20316;-46
2022/03/21 08:35:02;;;;;;;13.55;10.80;;;;;;;8.20;42.01;103340.44;5033361;28;20286;-48
2022/03/21 08:37:27;;;;;;;12.40;10.55;;;;;;;8.08;41.19;103337.59;5033793;28;20667;-47
2022/03/21 08:39:53;;;;;;;13.20;10.70;;;;;;;8.13;41.93;103350.09;5033208;28;20172;-48
2022/03/21 08:42:18;;;;;;;12.45;10.30;;;;;;;8.56;41.13;103347.09;5033212;28;20266;-48
2022/03/21 08:44:44;;;;;;;12.30;10.82;;;;;;;7.78;41.18;103334.56;5033253;28;20274;-47
2022/03/21 08:47:09;;;;;;;14.60;11.13;;;;;;;7.42;41.51;103341.13;5033194;28;20196;-47
2022/03/21 08:49:37;;;;;;;14.00;10.27;;;;;;;7.67;42.23;103332.59;5033052;28;20255;-49
2022/03/21 08:52:05;;;;;;;13.18;10.05;;;;;;;7.68;41.92;103337.06;5032909;28;20192;-49
2022/03/21 08:54:30;;;;;;;13.93;11.32;;;;;;;7.91;41.63;103318.69;5033257;28;20192;-50
2022/03/21 08:56:55;;;;;;;12.65;10.43;;;;;;;7.94;41.74;103316.09;5032856;28;20172;-48
2022/03/21 08:59:21;;;;;;;13.77;10.85;;;;;;;7.83;42.33;103321.28;5033172;28;20456;-49
2022/03/21 09:01:47;;;;;;;13.80;11.15;;;;;;;7.94;41.72;103316.97;5031203;28;20262;-47
2022/03/21 09:04:12;;;;;;;12.43;10.27;;;;;;;7.82;41.95;103295.44;5032517;28;20207;-49
2022/03/21 09:06:38;;;;;;;13.00;10.48;;;;;;;8.02;41.79;103306.38;5032882;28;20194;-48
2022/03/21 09:09:04;;;;;;;13.18;11.02;;;;;;;8.35;42.17;103297.88;5031502;28;20204;-48
2022/03/21 09:11:29;;;;;;;14.02;11.15;;;;;;;8.69;41.27;103298.22;5032290;28;20687;-47
2022/03/21 09:13:55;;;;;;;15.05;11.63;;;;;;;8.04;41.65;103288.59;5031723;28;20202;-47
2022/03/21 09:16:20;;;;;;;15.57;12.57;;;;;;;8.51;42.32;103290.06;5032367;28;20192;-47
2022/03/21 09:18:46;;;;;;;15.77;11.98;;;;;;;8.87;41.05;103284.13;5031407;28;20176;-48
2022/03/21 09:21:12;;;;;;;14.73;12.48;;;;;;;8.41;40.44;103291.72;5032075;28;20195;-49
2022/03/21 09:23:39;;;;;;;17.98;12.57;;;;;;;8.41;40.99;103286.38;5046560;28;20708;-47
2022/03/21 09:26:05;;;;;;;16.13;12.43;;;;;;;8.75;41.09;103289.38;5049812;28;20175;-47
2022/03/21 09:28:32;;;;;;;16.05;12.43;;;;;;;8.88;40.79;103283.25;5051636;28;20289;-50
2022/03/21 09:30:57;;;;;;;15.82;11.63;;;;;;;9.05;40.86;103281.63;5051984;28;21007;-47
2022/03/21 09:33:23;;;;;;;15.65;11.63;;;;;;;9.03;40.29;103275.34;5051646;28;20227;-50
2022/03/21 09:35:48;;;;;;;14.77;11.18;;;;;;;8.65;40.57;103277.69;5051825;28;20203;-48
2022/03/21 09:38:17;;;;;;;14.35;10.75;;;;;;;9.30;40.06;103272.88;5051141;28;20164;-48
2022/03/21 09:40:44;;;;;;;12.57;11.27;;;;;;;9.50;40.31;103273.88;5051882;28;20266;-49
2022/03/21 09:43:11;;;;;;;13.68;11.93;;;;;;;9.01;39.56;103281.59;5050888;28;20179;-46
2022/03/21 09:45:37;;;;;;;16.33;12.48;;;;;;;9.00;39.67;103271.75;5051381;28;20274;-47
2022/03/21 09:48:11;;;;;;;14.30;11.82;;;;;;;9.27;40.00;103271.97;5051511;28;20171;-48
2022/03/21 09:50:42;;;;;;;14.95;12.10;;;;;;;9.28;39.55;103273.72;5051245;28;20635;-49
2022/03/21 09:53:09;;;;;;;16.27;12.65;;;;;;;9.39;39.98;103267.56;5050671;28;20238;-48
2022/03/21 09:55:34;;;;;;;18.75;12.70;;;;;;;9.55;39.16;103268.53;5050912;28;20309;-47
2022/03/21 09:58:00;;;;;;;13.20;11.27;;;;;;;9.59;39.20;103273.03;5051035;28;20167;-46
2022/03/21 10:00:25;;;;;;;15.52;11.43;;;;;;;10.02;39.15;103267.84;5050732;28;20190;-47
2022/03/21 10:02:52;;;;;;;13.18;10.75;;;;;;;9.63;38.29;103282.88;5050817;28;20532;-48
2022/03/21 10:05:31;;;;;;;14.57;11.25;;;;;;;10.04;38.75;103272.31;5034535;28;20188;-47
2022/03/21 10:08:17;;;;;;;15.52;11.70;;;;;;;9.67;38.43;103269.50;5030985;28;20465;-49
2022/03/21 10:11:05;;;;;;;18.90;14.05;;;;;;;9.98;38.83;103274.09;5030914;28;20210;-48
2022/03/21 10:13:32;;;;;;;33.05;19.92;;;;;;;10.08;39.44;103279.47;5030351;28;20200;-47
2022/03/21 10:16:16;;;;;;;14.23;11.60;;;;;;;9.49;38.67;103269.41;5031159;28;20170;-49
2022/03/21 10:18:54;;;;;;;14.60;11.80;;;;;;;9.73;38.91;103276.69;5031070;28;20164;-48
2022/03/21 10:21:24;;;;;;;18.08;12.07;;;;;;;9.82;38.98;103273.16;5030767;28;20191;-47
2022/03/21 10:23:58;;;;;;;13.35;11.63;;;;;;;9.97;38.47;103267.84;5030664;28;20568;-50
2022/03/21 10:26:25;;;;;;;15.85;11.55;;;;;;;10.05;38.56;103273.22;5030530;28;20197;-49
2022/03/21 10:28:54;;;;;;;16.98;11.75;;;;;;;10.09;37.65;103266.97;5030733;28;20231;-47
2022/03/21 10:31:42;;;;;;;13.70;11.13;;;;;;;10.19;37.63;103268.81;5030380;28;20690;-47
2022/03/21 10:34:10;;;;;;;13.52;11.20;;;;;;;10.10;37.70;103282.16;5030859;28;20199;-48
2022/03/21 10:36:57;;;;;;;12.63;10.52;;;;;;;9.63;37.76;103275.72;5030220;28;20176;-47
2022/03/21 10:39:22;;;;;;;15.32;11.40;;;;;;;9.87;38.00;103264.22;5030662;28;20183;-49
2022/03/21 10:41:53;;;;;;;12.77;10.65;;;;;;;10.20;38.46;103257.19;5029017;28;20602;-47
2022/03/21 10:44:20;;;;;;;12.30;10.73;;;;;;;10.41;37.91;103251.00;5030056;28;20197;-49
2022/03/21 10:46:52;;;;;;;15.23;11.70;;;;;;;10.15;37.65;103253.59;5030594;28;20210;-48
2022/03/21 10:49:27;;;;;;;12.95;11.55;;;;;;;10.66;37.90;103262.63;5029609;28;20259;-47
2022/03/21 10:51:54;;;;;;;12.90;11.10;;;;;;;10.96;37.70;103251.94;5030058;28;20231;-47
2022/03/21 10:54:50;;;;;;;12.65;10.77;;;;;;;10.23;37.33;103258.97;5029379;28;20184;-46
2022/03/21 10:57:33;;;;;;;15.27;11.80;;;;;;;10.53;37.78;103260.84;5030379;28;20527;-50
2022/03/21 11:00:31;;;;;;;14.45;11.85;;;;;;;10.47;37.28;103267.13;5028944;28;20184;-51
2022/03/21 11:03:09;;;;;;;14.07;11.45;;;;;;;10.69;37.42;103259.06;4995397;28;20188;-49
2022/03/21 11:05:47;;;;;;;14.32;11.10;;;;;;;10.78;36.96;103274.25;5030273;28;20171;-51
2022/03/21 11:08:15;;;;;;;12.20;10.85;;;;;;;11.08;37.28;103270.66;5030063;28;20185;-50
2022/03/21 11:10:42;;;;;;;14.10;10.85;;;;;;;11.09;36.31;103273.34;5030322;28;20213;-49
2022/03/21 11:13:09;;;;;;;14.13;11.45;;;;;;;11.39;37.22;103260.78;5028883;28;20183;-49
2022/03/21 11:15:38;;;;;;;13.55;11.32;;;;;;;11.26;36.17;103264.38;5030011;28;20348;-50
2022/03/21 11:18:05;;;;;;;13.27;11.30;;;;;;;10.86;36.57;103269.78;5030088;28;20175;-47
2022/03/21 11:20:31;;;;;;;13.10;10.95;;;;;;;10.76;36.63;103268.00;5030165;28;20683;-48
2022/03/21 11:22:58;;;;;;;13.85;11.15;;;;;;;10.84;36.97;103275.16;5029211;28;20168;-50
2022/03/21 11:25:28;;;;;;;14.52;11.18;;;;;;;11.05;36.91;103276.94;5029802;28;20192;-48
2022/03/21 11:28:06;;;;;;;14.52;11.90;;;;;;;10.84;36.18;103274.25;5028491;28;20160;-48
2022/03/21 11:30:56;;;;;;;15.20;11.57;;;;;;;10.89;36.62;103269.81;5030131;28;20176;-47
2022/03/21 11:33:40;;;;;;;13.77;11.95;;;;;;;11.26;36.90;103265.28;5029100;28;20651;-48
2022/03/21 11:36:11;;;;;;;12.95;11.55;;;;;;;11.23;36.68;103261.72;5029641;28;20235;-51
2022/03/21 11:38:41;;;;;;;16.38;11.57;;;;;;;11.13;36.17;103261.72;5028104;28;20180;-47